KDSV/DSV METAR and TAF weather

Enter ICAO airport designator
Station Type Date Time Source
KDSV METAR 2020/12/05 04:54 UTC NOAA

KDSV 050454Z AUTO 00000KT 7SM BKN025 BKN035 OVC050 04/02 A2987 RMK AO2 SLP128 T00390017 400890017


Station Type Date Time Source
KDSV Decoded METAR 2020/12/05 04:54 UTC NOAA

DANSVILLE MUNICIPAL AIRPORT, NY, United States (KDSV) 42-34N 077-43W 198M
Dec 04, 2020 - 11:54 PM EST / 2020.12.05 0454 UTC
Wind: Calm:0
Visibility: 7 mile(s):0
Sky conditions: overcast
Temperature: 39.0 F (3.9 C)
Dew Point: 35.1 F (1.7 C)
Relative Humidity: 85%
Pressure (altimeter): 29.87 in. Hg (1011 hPa)
ob: KDSV 050454Z AUTO 00000KT 7SM BKN025 BKN035 OVC050 04/02 A2987 RMK AO2 SLP128 T00390017 400890017
cycle: 5

Station Type Date Time Source
KDSV TAF UTC NOAA

Error!

Example: see airport list